createdAt,value
2023-05-25T00:00:57.517Z,1007.24
2023-05-25T00:01:43.083Z,1007.25
2023-05-25T00:02:43.294Z,1007.23
2023-05-25T00:03:43.098Z,1007.23
2023-05-25T00:04:43.107Z,1007.24
2023-05-25T00:05:43.209Z,1007.23
2023-05-25T00:06:43.060Z,1007.21
2023-05-25T00:07:42.993Z,1007.24
2023-05-25T00:08:42.963Z,1007.25
2023-05-25T00:09:43.006Z,1007.24
2023-05-25T00:10:43.074Z,1007.27
2023-05-25T00:11:42.970Z,1007.25
2023-05-25T00:12:43.015Z,1007.26
2023-05-25T00:13:42.931Z,1007.25
2023-05-25T00:14:42.933Z,1007.19
2023-05-25T00:15:43.044Z,1007.22
2023-05-25T00:16:42.980Z,1007.23
2023-05-25T00:17:42.974Z,1007.22
2023-05-25T00:18:42.891Z,1007.20
2023-05-25T00:19:42.840Z,1007.19
2023-05-25T00:20:42.899Z,1007.19
2023-05-25T00:21:42.887Z,1007.18
2023-05-25T00:22:42.849Z,1007.20
2023-05-25T00:23:42.810Z,1007.19
2023-05-25T00:24:42.787Z,1007.20
2023-05-25T00:25:43.125Z,1007.21
2023-05-25T00:26:42.778Z,1007.18
2023-05-25T00:27:42.789Z,1007.19
2023-05-25T00:28:42.748Z,1007.17
2023-05-25T00:29:42.776Z,1007.18
2023-05-25T00:30:42.755Z,1007.19
2023-05-25T00:31:42.724Z,1007.12
2023-05-25T00:32:42.818Z,1007.12
2023-05-25T00:33:42.816Z,1007.12
2023-05-25T00:34:42.726Z,1007.10
2023-05-25T00:35:43.062Z,1007.10
2023-05-25T00:36:42.738Z,1007.10
2023-05-25T00:37:42.719Z,1007.10
2023-05-25T00:38:42.680Z,1007.12
2023-05-25T00:39:42.619Z,1007.05
2023-05-25T00:40:42.613Z,1007.10
2023-05-25T00:41:42.637Z,1007.08
2023-05-25T00:42:42.758Z,1007.08
2023-05-25T00:43:42.573Z,1007.10
2023-05-25T00:44:42.731Z,1007.12
2023-05-25T00:45:42.906Z,1007.09
2023-05-25T00:46:42.675Z,1007.10
2023-05-25T00:47:42.726Z,1007.07
2023-05-25T00:48:42.577Z,1007.08
2023-05-25T00:49:42.533Z,1007.09
2023-05-25T00:50:42.536Z,1007.08
2023-05-25T00:51:42.483Z,1007.09
2023-05-25T00:52:42.532Z,1007.07
2023-05-25T00:53:42.563Z,1007.06
2023-05-25T00:54:42.606Z,1007.06
2023-05-25T00:55:42.657Z,1007.06
2023-05-25T00:56:42.458Z,1007.08
2023-05-25T00:57:42.487Z,1007.10
2023-05-25T00:58:42.440Z,1007.09
2023-05-25T00:59:42.639Z,1007.07
2023-05-25T01:00:42.408Z,1007.10
2023-05-25T01:01:42.434Z,1007.09
2023-05-25T01:02:42.498Z,1007.07
2023-05-25T01:03:42.427Z,1007.09
2023-05-25T01:04:42.357Z,1007.10
2023-05-25T01:05:42.630Z,1007.12
2023-05-25T01:06:42.384Z,1007.12
2023-05-25T01:07:42.352Z,1007.09
2023-05-25T01:08:42.297Z,1007.13
2023-05-25T01:09:42.300Z,1007.09
2023-05-25T01:10:42.294Z,1007.11
2023-05-25T01:11:42.367Z,1007.08
2023-05-25T01:12:42.357Z,1007.11
2023-05-25T01:13:42.274Z,1007.10
2023-05-25T01:14:42.220Z,1007.08
2023-05-25T01:15:42.504Z,1007.09
2023-05-25T01:16:42.238Z,1007.08
2023-05-25T01:17:42.287Z,1007.09
2023-05-25T01:18:42.197Z,1007.08
2023-05-25T01:19:42.237Z,1007.09
2023-05-25T01:20:42.213Z,1007.09
2023-05-25T01:21:42.338Z,1007.11
2023-05-25T01:22:42.179Z,1007.10
2023-05-25T01:23:42.138Z,1007.10
2023-05-25T01:24:42.150Z,1007.10
2023-05-25T01:25:42.238Z,1007.11
2023-05-25T01:26:42.098Z,1007.11
2023-05-25T01:27:42.120Z,1007.13
2023-05-25T01:28:42.083Z,1007.16
2023-05-25T01:29:42.105Z,1007.13
2023-05-25T01:30:42.119Z,1007.14
2023-05-25T01:31:42.080Z,1007.14
2023-05-25T01:32:42.091Z,1007.16
2023-05-25T01:33:42.031Z,1007.15
2023-05-25T01:34:42.058Z,1007.18
2023-05-25T01:35:42.251Z,1007.18
2023-05-25T01:36:42.087Z,1007.20
2023-05-25T01:37:41.966Z,1007.18
2023-05-25T01:38:42.028Z,1007.19
2023-05-25T01:39:42.073Z,1007.20
2023-05-25T01:40:41.993Z,1007.18
2023-05-25T01:41:41.990Z,1007.17
2023-05-25T01:42:41.997Z,1007.16
2023-05-25T01:43:41.944Z,1007.16
2023-05-25T01:44:41.919Z,1007.16
2023-05-25T01:45:42.124Z,1007.17
2023-05-25T01:46:42.097Z,1007.18
2023-05-25T01:47:41.923Z,1007.17
2023-05-25T01:48:41.870Z,1007.18
2023-05-25T01:49:41.888Z,1007.17
2023-05-25T01:50:41.855Z,1007.18
2023-05-25T01:51:41.942Z,1007.20
2023-05-25T01:52:41.862Z,1007.20
2023-05-25T01:53:41.810Z,1007.23
2023-05-25T01:54:41.865Z,1007.24
2023-05-25T01:55:41.916Z,1007.24
2023-05-25T01:56:41.781Z,1007.24
2023-05-25T01:57:41.851Z,1007.25
2023-05-25T01:58:41.794Z,1007.23
2023-05-25T01:59:41.751Z,1007.25
2023-05-25T02:00:41.747Z,1007.24
2023-05-25T02:01:41.759Z,1007.26
2023-05-25T02:02:41.987Z,1007.26
2023-05-25T02:03:41.687Z,1007.27
2023-05-25T02:04:41.864Z,1007.28
2023-05-25T02:05:41.958Z,1007.30
2023-05-25T02:06:41.685Z,1007.29
2023-05-25T02:07:41.694Z,1007.30
2023-05-25T02:08:41.638Z,1007.29
2023-05-25T02:09:41.745Z,1007.28
2023-05-25T02:10:41.634Z,1007.26
2023-05-25T02:11:41.620Z,1007.28
2023-05-25T02:12:41.639Z,1007.26
2023-05-25T02:13:41.651Z,1007.25
2023-05-25T02:14:41.651Z,1007.24
2023-05-25T02:15:41.748Z,1007.22
2023-05-25T02:16:41.582Z,1007.23
2023-05-25T02:17:41.573Z,1007.21
2023-05-25T02:18:41.534Z,1007.20
2023-05-25T02:19:41.582Z,1007.20
2023-05-25T02:20:41.534Z,1007.21
2023-05-25T02:21:41.584Z,1007.22
2023-05-25T02:22:41.514Z,1007.21
2023-05-25T02:23:41.578Z,1007.20
2023-05-25T02:24:41.524Z,1007.21
2023-05-25T02:25:41.533Z,1007.21
2023-05-25T02:26:41.436Z,1007.18
2023-05-25T02:27:41.513Z,1007.16
2023-05-25T02:28:41.457Z,1007.15
2023-05-25T02:29:41.422Z,1007.14
2023-05-25T02:30:41.537Z,1007.12
2023-05-25T02:31:41.500Z,1007.14
2023-05-25T02:32:41.493Z,1007.13
2023-05-25T02:33:41.378Z,1007.13
2023-05-25T02:34:41.413Z,1007.12
2023-05-25T02:35:41.589Z,1007.12
2023-05-25T02:36:41.357Z,1007.11
2023-05-25T02:37:41.328Z,1007.09
2023-05-25T02:38:41.378Z,1007.10
2023-05-25T02:39:41.405Z,1007.10
2023-05-25T02:40:41.454Z,1007.11
2023-05-25T02:41:41.388Z,1007.10
2023-05-25T02:42:41.335Z,1007.10
2023-05-25T02:43:41.347Z,1007.08
2023-05-25T02:44:41.341Z,1007.10
2023-05-25T02:45:41.329Z,1007.10
2023-05-25T02:46:41.264Z,1007.10
2023-05-25T02:47:41.356Z,1007.10
2023-05-25T02:48:41.248Z,1007.09
2023-05-25T02:49:41.173Z,1007.08
2023-05-25T02:50:41.181Z,1007.07
2023-05-25T02:51:41.207Z,1007.08
2023-05-25T02:52:41.178Z,1007.09
2023-05-25T02:53:41.107Z,1007.08
2023-05-25T02:54:41.173Z,1007.08
2023-05-25T02:55:41.084Z,1007.08
2023-05-25T02:56:41.112Z,1007.09
2023-05-25T02:57:41.091Z,1007.04
2023-05-25T02:58:41.111Z,1007.07
2023-05-25T02:59:41.092Z,1007.05
2023-05-25T03:00:41.042Z,1007.05
2023-05-25T03:01:41.161Z,1007.07
2023-05-25T03:02:41.026Z,1007.08
2023-05-25T03:03:41.039Z,1007.07
2023-05-25T03:04:40.964Z,1007.14
2023-05-25T03:05:41.028Z,1007.11
2023-05-25T03:06:40.987Z,1007.15
2023-05-25T03:07:40.956Z,1007.15
2023-05-25T03:08:40.962Z,1007.16
2023-05-25T03:09:40.906Z,1007.14
2023-05-25T03:10:40.970Z,1007.15
2023-05-25T03:11:40.932Z,1007.13
2023-05-25T03:12:40.990Z,1007.13
2023-05-25T03:13:40.921Z,1007.13
2023-05-25T03:14:40.885Z,1007.12
2023-05-25T03:15:40.933Z,1007.11
2023-05-25T03:16:40.914Z,1007.09
2023-05-25T03:17:40.920Z,1007.08
2023-05-25T03:18:40.841Z,1007.10
2023-05-25T03:19:40.980Z,1007.09
2023-05-25T03:20:40.896Z,1007.11
2023-05-25T03:21:40.844Z,1007.13
2023-05-25T03:22:40.781Z,1007.18
2023-05-25T03:23:40.789Z,1007.21
2023-05-25T03:24:40.778Z,1007.22
2023-05-25T03:25:40.754Z,1007.23
2023-05-25T03:26:40.823Z,1007.25
2023-05-25T03:27:40.708Z,1007.26
2023-05-25T03:28:40.772Z,1007.27
2023-05-25T03:29:40.811Z,1007.28
2023-05-25T03:30:40.691Z,1007.28
2023-05-25T03:31:40.817Z,1007.30
2023-05-25T03:32:40.753Z,1007.29
2023-05-25T03:33:40.707Z,1007.31
2023-05-25T03:34:40.663Z,1007.30
2023-05-25T03:35:40.650Z,1007.30
2023-05-25T03:36:40.720Z,1007.30
2023-05-25T03:37:40.680Z,1007.30
2023-05-25T03:38:40.636Z,1007.29
2023-05-25T03:39:40.589Z,1007.29
2023-05-25T03:40:40.614Z,1007.30
2023-05-25T03:41:40.667Z,1007.30
2023-05-25T03:42:40.650Z,1007.28
2023-05-25T03:43:40.619Z,1007.29
2023-05-25T03:44:41.436Z,1007.31
2023-05-25T03:45:40.573Z,1007.31
2023-05-25T03:46:40.788Z,1007.32
2023-05-25T03:47:40.538Z,1007.34
2023-05-25T03:48:40.644Z,1007.34
2023-05-25T03:49:40.502Z,1007.34
2023-05-25T03:50:40.467Z,1007.36
2023-05-25T03:51:40.450Z,1007.34
2023-05-25T03:52:40.530Z,1007.35
2023-05-25T03:53:40.461Z,1007.36
2023-05-25T03:54:40.456Z,1007.34
2023-05-25T03:55:40.445Z,1007.33
2023-05-25T03:56:40.435Z,1007.32
2023-05-25T03:57:40.451Z,1007.34
2023-05-25T03:58:40.415Z,1007.34
2023-05-25T03:59:40.400Z,1007.35
2023-05-25T04:00:40.402Z,1007.34
2023-05-25T04:01:40.361Z,1007.35
2023-05-25T04:02:40.472Z,1007.36
2023-05-25T04:03:40.659Z,1007.36
2023-05-25T04:04:40.374Z,1007.37
2023-05-25T04:05:40.340Z,1007.41
2023-05-25T04:06:40.325Z,1007.42
2023-05-25T04:07:40.357Z,1007.44
2023-05-25T04:08:40.298Z,1007.46
2023-05-25T04:09:40.306Z,1007.45
2023-05-25T04:10:40.267Z,1007.45
2023-05-25T04:11:40.336Z,1007.48
2023-05-25T04:12:40.328Z,1007.49
2023-05-25T04:13:40.376Z,1007.50
2023-05-25T04:14:40.254Z,1007.52
2023-05-25T04:15:40.220Z,1007.51
2023-05-25T04:16:40.301Z,1007.50
2023-05-25T04:17:40.235Z,1007.49
2023-05-25T04:18:40.171Z,1007.51
2023-05-25T04:19:40.162Z,1007.53
2023-05-25T04:20:40.154Z,1007.52
2023-05-25T04:21:40.184Z,1007.54
2023-05-25T04:22:40.166Z,1007.54
2023-05-25T04:23:40.132Z,1007.56
2023-05-25T04:24:40.150Z,1007.56
2023-05-25T04:25:40.163Z,1007.57
2023-05-25T04:26:40.107Z,1007.59
2023-05-25T04:27:40.154Z,1007.63
2023-05-25T04:28:40.121Z,1007.65
2023-05-25T04:29:40.079Z,1007.66
2023-05-25T04:30:40.049Z,1007.67
2023-05-25T04:31:40.218Z,1007.70
2023-05-25T04:32:40.076Z,1007.75
2023-05-25T04:33:40.027Z,1007.81
2023-05-25T04:34:40.015Z,1007.83
2023-05-25T04:35:39.972Z,1007.86
2023-05-25T04:36:39.967Z,1007.86
2023-05-25T04:37:40.065Z,1007.86
2023-05-25T04:38:39.974Z,1007.83
2023-05-25T04:39:39.942Z,1007.84
2023-05-25T04:40:39.986Z,1007.81
2023-05-25T04:41:39.927Z,1007.85
2023-05-25T04:42:39.926Z,1007.85
2023-05-25T04:43:49.237Z,1007.85
2023-05-25T04:44:39.910Z,1007.80
2023-05-25T04:45:39.938Z,1007.83
2023-05-25T04:46:39.898Z,1007.82
2023-05-25T04:47:39.862Z,1007.81
2023-05-25T04:48:39.854Z,1007.81
2023-05-25T04:49:39.853Z,1007.83
2023-05-25T04:50:39.818Z,1007.81
2023-05-25T04:51:39.806Z,1007.82
2023-05-25T04:52:39.794Z,1007.84
2023-05-25T04:53:39.788Z,1007.86
2023-05-25T04:54:39.761Z,1007.89
2023-05-25T04:55:39.757Z,1007.92
2023-05-25T04:56:39.772Z,1007.93
2023-05-25T04:57:39.739Z,1007.97
2023-05-25T04:58:39.724Z,1007.99
2023-05-25T04:59:39.760Z,1007.99
2023-05-25T05:00:39.751Z,1007.97
2023-05-25T05:01:39.793Z,1007.96
2023-05-25T05:02:39.781Z,1007.99
2023-05-25T05:03:39.799Z,1008.00
2023-05-25T05:04:39.704Z,1007.99
2023-05-25T05:05:39.699Z,1007.96
2023-05-25T05:06:39.648Z,1007.97
2023-05-25T05:07:39.629Z,1007.94
2023-05-25T05:08:39.616Z,1007.98
2023-05-25T05:09:39.633Z,1007.98
2023-05-25T05:10:39.611Z,1008.02
2023-05-25T05:11:39.743Z,1007.99
2023-05-25T05:12:39.625Z,1008.02
2023-05-25T05:13:39.581Z,1008.01
2023-05-25T05:14:39.669Z,1008.04
2023-05-25T05:15:39.542Z,1008.07
2023-05-25T05:16:39.632Z,1008.08
2023-05-25T05:17:39.597Z,1008.09
2023-05-25T05:18:39.570Z,1008.07
2023-05-25T05:19:39.505Z,1008.08
2023-05-25T05:20:39.614Z,1008.09
2023-05-25T05:21:39.614Z,1008.09
2023-05-25T05:22:39.461Z,1008.10
2023-05-25T05:23:39.580Z,1008.13
2023-05-25T05:24:39.440Z,1008.17
2023-05-25T05:25:39.426Z,1008.18
2023-05-25T05:26:55.613Z,1008.21
2023-05-25T05:27:39.426Z,1008.23
2023-05-25T05:28:39.392Z,1008.26
2023-05-25T05:29:39.397Z,1008.24
2023-05-25T05:30:39.406Z,1008.24
2023-05-25T05:31:39.390Z,1008.27
2023-05-25T05:32:39.367Z,1008.27
2023-05-25T05:33:39.446Z,1008.26
2023-05-25T05:34:39.333Z,1008.25
2023-05-25T05:35:39.321Z,1008.29
2023-05-25T05:36:55.884Z,1008.28
2023-05-25T05:37:39.357Z,1008.30
2023-05-25T05:38:40.024Z,1008.28
2023-05-25T05:39:39.299Z,1008.33
2023-05-25T05:40:39.298Z,1008.34
2023-05-25T05:41:39.248Z,1008.34
2023-05-25T05:42:39.229Z,1008.35
2023-05-25T05:43:39.440Z,1008.38
2023-05-25T05:44:39.294Z,1008.36
2023-05-25T05:45:39.220Z,1008.38
2023-05-25T05:46:39.304Z,1008.37
2023-05-25T05:47:39.256Z,1008.36
2023-05-25T05:48:39.187Z,1008.36
2023-05-25T05:49:39.197Z,1008.41
2023-05-25T05:50:41.774Z,1008.41
2023-05-25T05:51:39.186Z,1008.40
2023-05-25T05:52:39.149Z,1008.44
2023-05-25T05:53:39.188Z,1008.44
2023-05-25T05:54:39.161Z,1008.42
2023-05-25T05:55:39.106Z,1008.44
2023-05-25T05:56:39.127Z,1008.43
2023-05-25T05:57:39.112Z,1008.46
2023-05-25T05:58:39.091Z,1008.43
2023-05-25T05:59:39.068Z,1008.45
2023-05-25T06:00:39.057Z,1008.43
2023-05-25T06:01:39.151Z,1008.44
2023-05-25T06:02:41.317Z,1008.48
2023-05-25T06:03:39.051Z,1008.47
2023-05-25T06:04:39.006Z,1008.49
2023-05-25T06:05:39.071Z,1008.52
2023-05-25T06:06:39.069Z,1008.47
2023-05-25T06:07:39.014Z,1008.52
2023-05-25T06:08:38.971Z,1008.54
2023-05-25T06:09:38.941Z,1008.52
2023-05-25T06:10:39.399Z,1008.57
2023-05-25T06:11:38.954Z,1008.56
2023-05-25T06:12:38.905Z,1008.54
2023-05-25T06:13:38.918Z,1008.57
2023-05-25T06:14:38.930Z,1008.58
2023-05-25T06:15:38.937Z,1008.56
2023-05-25T06:16:38.910Z,1008.55
2023-05-25T06:17:38.944Z,1008.54
2023-05-25T06:18:38.862Z,1008.59
2023-05-25T06:19:38.841Z,1008.61
2023-05-25T06:20:38.925Z,1008.56
2023-05-25T06:21:38.841Z,1008.56
2023-05-25T06:22:38.820Z,1008.56
2023-05-25T06:23:38.820Z,1008.57
2023-05-25T06:24:38.809Z,1008.59
2023-05-25T06:25:38.759Z,1008.60
2023-05-25T06:26:38.790Z,1008.60
2023-05-25T06:27:38.772Z,1008.60
2023-05-25T06:28:38.777Z,1008.63
2023-05-25T06:29:38.711Z,1008.60
2023-05-25T06:30:38.711Z,1008.56
2023-05-25T06:31:38.801Z,1008.58
2023-05-25T06:32:38.750Z,1008.53
2023-05-25T06:33:38.708Z,1008.56
2023-05-25T06:34:38.712Z,1008.55
2023-05-25T06:35:38.700Z,1008.53
2023-05-25T06:36:38.632Z,1008.58
2023-05-25T06:37:38.637Z,1008.55
2023-05-25T06:38:38.661Z,1008.56
2023-05-25T06:39:38.616Z,1008.57
2023-05-25T06:40:38.602Z,1008.58
2023-05-25T06:41:38.620Z,1008.56
2023-05-25T06:42:38.592Z,1008.58
2023-05-25T06:43:38.573Z,1008.55
2023-05-25T06:44:38.597Z,1008.53
2023-05-25T06:45:38.552Z,1008.54
2023-05-25T06:46:38.595Z,1008.59
2023-05-25T06:47:38.550Z,1008.57
2023-05-25T06:48:38.550Z,1008.53
2023-05-25T06:49:38.502Z,1008.55
2023-05-25T06:50:38.516Z,1008.55
2023-05-25T06:51:38.536Z,1008.56
2023-05-25T06:52:38.510Z,1008.60
2023-05-25T06:53:38.449Z,1008.57
2023-05-25T06:54:38.516Z,1008.58
2023-05-25T06:55:38.435Z,1008.59
2023-05-25T06:56:38.455Z,1008.62
2023-05-25T06:57:38.424Z,1008.64
2023-05-25T06:58:38.415Z,1008.61
2023-05-25T06:59:38.459Z,1008.60
2023-05-25T07:00:38.437Z,1008.63
2023-05-25T07:01:38.489Z,1008.61
2023-05-25T07:02:38.392Z,1008.62
2023-05-25T07:03:38.419Z,1008.64
2023-05-25T07:04:38.370Z,1008.63
2023-05-25T07:05:38.383Z,1008.63
2023-05-25T07:06:38.322Z,1008.63
2023-05-25T07:07:38.331Z,1008.66
2023-05-25T07:08:38.307Z,1008.66
2023-05-25T07:09:38.319Z,1008.60
2023-05-25T07:10:38.297Z,1008.60
2023-05-25T07:11:38.289Z,1008.58
2023-05-25T07:12:38.248Z,1008.57
2023-05-25T07:13:38.260Z,1008.62
2023-05-25T07:14:38.308Z,1008.56
2023-05-25T07:15:38.269Z,1008.62
2023-05-25T07:16:38.544Z,1008.55
2023-05-25T07:17:38.217Z,1008.55
2023-05-25T07:18:38.288Z,1008.61
2023-05-25T07:19:38.194Z,1008.58
2023-05-25T07:20:38.352Z,1008.53
2023-05-25T07:21:38.183Z,1008.58
2023-05-25T07:22:38.165Z,1008.51
2023-05-25T07:23:38.224Z,1008.51
2023-05-25T07:24:38.144Z,1008.51
2023-05-25T07:25:38.140Z,1008.54
2023-05-25T07:26:38.146Z,1008.54
2023-05-25T07:27:38.094Z,1008.55
2023-05-25T07:28:38.102Z,1008.54
2023-05-25T07:29:38.061Z,1008.52
2023-05-25T07:30:38.074Z,1008.53
2023-05-25T07:31:38.110Z,1008.56
2023-05-25T07:32:38.094Z,1008.52
2023-05-25T07:33:38.034Z,1008.52
2023-05-25T07:34:38.010Z,1008.51
2023-05-25T07:35:38.010Z,1008.53
2023-05-25T07:36:38.019Z,1008.52
2023-05-25T07:37:37.984Z,1008.52
2023-05-25T07:38:37.979Z,1008.53
2023-05-25T07:39:37.988Z,1008.52
2023-05-25T07:40:38.042Z,1008.56
2023-05-25T07:41:37.928Z,1008.53
2023-05-25T07:42:37.954Z,1008.52
2023-05-25T07:43:37.947Z,1008.55
2023-05-25T07:44:37.918Z,1008.56
2023-05-25T07:45:37.918Z,1008.54
2023-05-25T07:46:37.902Z,1008.52
2023-05-25T07:47:38.010Z,1008.55
2023-05-25T07:48:37.868Z,1008.58
2023-05-25T07:49:37.876Z,1008.55
2023-05-25T07:50:37.858Z,1008.54
2023-05-25T07:51:37.846Z,1008.55
2023-05-25T07:52:37.844Z,1008.52
2023-05-25T07:53:37.796Z,1008.54
2023-05-25T07:54:37.817Z,1008.55
2023-05-25T07:55:37.813Z,1008.53
2023-05-25T07:56:37.821Z,1008.54
2023-05-25T07:57:37.780Z,1008.54
2023-05-25T07:58:37.822Z,1008.56
2023-05-25T07:59:37.740Z,1008.54
2023-05-25T08:00:37.784Z,1008.52
2023-05-25T08:01:37.716Z,1008.51
2023-05-25T08:02:37.937Z,1008.49
2023-05-25T08:03:48.809Z,1008.48
2023-05-25T08:04:37.865Z,1008.44
2023-05-25T08:05:37.754Z,1008.47
2023-05-25T08:06:37.671Z,1008.45
2023-05-25T08:07:38.636Z,1008.41
2023-05-25T08:08:37.658Z,1008.40
2023-05-25T08:09:37.639Z,1008.42
2023-05-25T08:10:37.669Z,1008.42
2023-05-25T08:11:37.615Z,1008.39
2023-05-25T08:12:46.907Z,1008.39
2023-05-25T08:13:37.618Z,1008.41
2023-05-25T08:14:37.645Z,1008.44
2023-05-25T08:15:37.577Z,1008.45
2023-05-25T08:16:37.623Z,1008.44
2023-05-25T08:17:37.562Z,1008.48
2023-05-25T08:18:37.563Z,1008.47
2023-05-25T08:19:37.550Z,1008.49
2023-05-25T08:20:37.610Z,1008.43
2023-05-25T08:21:37.536Z,1008.42
2023-05-25T08:22:37.525Z,1008.47
2023-05-25T08:23:37.468Z,1008.44
2023-05-25T08:24:37.641Z,1008.43
2023-05-25T08:25:37.488Z,1008.51
2023-05-25T08:26:52.844Z,1008.47
2023-05-25T08:27:37.492Z,1008.51
2023-05-25T08:28:37.616Z,1008.51
2023-05-25T08:29:37.452Z,1008.55
2023-05-25T08:30:37.447Z,1008.54
2023-05-25T08:31:37.501Z,1008.48
2023-05-25T08:32:37.401Z,1008.46
2023-05-25T08:33:37.378Z,1008.45
2023-05-25T08:34:37.344Z,1008.52
2023-05-25T08:35:37.393Z,1008.49
2023-05-25T08:36:37.518Z,1008.44
2023-05-25T08:37:37.442Z,1008.47
2023-05-25T08:38:37.335Z,1008.46
2023-05-25T08:39:37.325Z,1008.47
2023-05-25T08:40:37.296Z,1008.47
2023-05-25T08:41:37.352Z,1008.41
2023-05-25T08:42:37.292Z,1008.38
2023-05-25T08:43:37.271Z,1008.32
2023-05-25T08:44:37.275Z,1008.41
2023-05-25T08:45:40.533Z,1008.34
2023-05-25T08:46:37.228Z,1008.37
2023-05-25T08:47:37.210Z,1008.36
2023-05-25T08:48:41.876Z,1008.35
2023-05-25T08:49:37.243Z,1008.36
2023-05-25T08:50:37.197Z,1008.35
2023-05-25T08:51:37.165Z,1008.40
2023-05-25T08:52:37.153Z,1008.37
2023-05-25T08:53:37.152Z,1008.35
2023-05-25T08:54:37.132Z,1008.31
2023-05-25T08:55:37.122Z,1008.38
2023-05-25T08:56:37.196Z,1008.40
2023-05-25T08:57:37.127Z,1008.36
2023-05-25T08:58:37.080Z,1008.36
2023-05-25T08:59:37.102Z,1008.37
2023-05-25T09:00:37.114Z,1008.40
2023-05-25T09:01:37.103Z,1008.34
2023-05-25T09:02:37.139Z,1008.32
2023-05-25T09:03:37.080Z,1008.34
2023-05-25T09:04:37.018Z,1008.34
2023-05-25T09:05:38.120Z,1008.29
2023-05-25T09:06:37.039Z,1008.29
2023-05-25T09:07:37.020Z,1008.29
2023-05-25T09:08:36.978Z,1008.31
2023-05-25T09:09:37.008Z,1008.33
2023-05-25T09:10:36.990Z,1008.30
2023-05-25T09:11:40.058Z,1008.32
2023-05-25T09:12:36.939Z,1008.31
2023-05-25T09:13:36.960Z,1008.26
2023-05-25T09:14:36.896Z,1008.33
2023-05-25T09:15:36.897Z,1008.31
2023-05-25T09:16:36.982Z,1008.33
2023-05-25T09:17:38.262Z,1008.29
2023-05-25T09:18:36.944Z,1008.33
2023-05-25T09:19:36.863Z,1008.28
2023-05-25T09:20:36.952Z,1008.33
2023-05-25T09:21:36.843Z,1008.35
2023-05-25T09:22:36.883Z,1008.32
2023-05-25T09:23:36.845Z,1008.31
2023-05-25T09:24:36.843Z,1008.28
2023-05-25T09:25:36.837Z,1008.32
2023-05-25T09:26:36.866Z,1008.31
2023-05-25T09:27:36.812Z,1008.40
2023-05-25T09:28:36.814Z,1008.38
2023-05-25T09:29:36.826Z,1008.37
2023-05-25T09:30:36.770Z,1008.39
2023-05-25T09:31:36.799Z,1008.41
2023-05-25T09:32:36.798Z,1008.39
2023-05-25T09:33:37.182Z,1008.40
2023-05-25T09:34:36.734Z,1008.37
2023-05-25T09:35:36.733Z,1008.42
2023-05-25T09:36:36.754Z,1008.42
2023-05-25T09:37:36.891Z,1008.41
2023-05-25T09:38:36.820Z,1008.42
2023-05-25T09:39:36.948Z,1008.40
2023-05-25T09:40:36.659Z,1008.37
2023-05-25T09:41:36.671Z,1008.33
2023-05-25T09:42:36.653Z,1008.37
2023-05-25T09:43:44.746Z,1008.33
2023-05-25T09:44:36.617Z,1008.36
2023-05-25T09:45:38.191Z,1008.33
2023-05-25T09:46:36.686Z,1008.40
2023-05-25T09:47:36.675Z,1008.35
2023-05-25T09:48:36.607Z,1008.37
2023-05-25T09:49:36.642Z,1008.39
2023-05-25T09:50:36.575Z,1008.40
2023-05-25T09:51:36.547Z,1008.44
2023-05-25T09:52:36.566Z,1008.48
2023-05-25T09:53:36.542Z,1008.44
2023-05-25T09:54:36.505Z,1008.44
2023-05-25T09:55:51.493Z,1008.44
2023-05-25T09:56:36.514Z,1008.44
2023-05-25T09:57:36.508Z,1008.34
2023-05-25T09:58:36.544Z,1008.37
2023-05-25T09:59:36.632Z,1008.41
2023-05-25T10:00:36.489Z,1008.44
2023-05-25T10:01:36.497Z,1008.42
2023-05-25T10:02:36.459Z,1008.35
2023-05-25T10:03:36.447Z,1008.38
2023-05-25T10:04:36.401Z,1008.35
2023-05-25T10:05:36.402Z,1008.37
2023-05-25T10:06:36.413Z,1008.35
2023-05-25T10:07:36.498Z,1008.33
2023-05-25T10:08:36.434Z,1008.30
2023-05-25T10:09:36.331Z,1008.30
2023-05-25T10:10:36.386Z,1008.26
2023-05-25T10:11:36.341Z,1008.31
2023-05-25T10:12:36.375Z,1008.32
2023-05-25T10:13:36.311Z,1008.35
2023-05-25T10:14:36.343Z,1008.37
2023-05-25T10:15:36.340Z,1008.38
2023-05-25T10:16:36.392Z,1008.35
2023-05-25T10:17:36.390Z,1008.35
2023-05-25T10:18:36.258Z,1008.36
2023-05-25T10:19:36.281Z,1008.37
2023-05-25T10:20:36.319Z,1008.32
2023-05-25T10:21:36.250Z,1008.33
2023-05-25T10:22:36.246Z,1008.35
2023-05-25T10:23:36.238Z,1008.39
2023-05-25T10:24:36.249Z,1008.32
2023-05-25T10:25:36.207Z,1008.25
2023-05-25T10:26:36.227Z,1008.35
2023-05-25T10:27:36.205Z,1008.32
2023-05-25T10:28:36.188Z,1008.16
2023-05-25T10:29:36.141Z,1008.25
2023-05-25T10:30:36.195Z,1008.28
2023-05-25T10:31:36.116Z,1008.30
2023-05-25T10:32:36.238Z,1008.28
2023-05-25T10:33:36.100Z,1008.28
2023-05-25T10:34:36.109Z,1008.31
2023-05-25T10:35:46.826Z,1008.25
2023-05-25T10:36:36.128Z,1008.20
2023-05-25T10:37:36.087Z,1008.26
2023-05-25T10:38:36.065Z,1008.27
2023-05-25T10:39:36.101Z,1008.31
2023-05-25T10:40:36.062Z,1008.25
2023-05-25T10:41:36.072Z,1008.22
2023-05-25T10:42:36.030Z,1008.26
2023-05-25T10:43:36.031Z,1008.23
2023-05-25T10:44:36.005Z,1008.21
2023-05-25T10:45:36.047Z,1008.19
2023-05-25T10:46:36.023Z,1008.19
2023-05-25T10:47:35.975Z,1008.22
2023-05-25T10:48:35.992Z,1008.18
2023-05-25T10:49:36.056Z,1008.19
2023-05-25T10:50:35.981Z,1008.21
2023-05-25T10:51:35.955Z,1008.19
2023-05-25T10:52:36.026Z,1008.17
2023-05-25T10:53:35.925Z,1008.14
2023-05-25T10:54:35.899Z,1008.21
2023-05-25T10:55:35.984Z,1008.20
2023-05-25T10:56:35.899Z,1008.17
2023-05-25T10:57:35.883Z,1008.19
2023-05-25T10:58:35.847Z,1008.20
2023-05-25T10:59:35.888Z,1008.26
2023-05-25T11:00:35.943Z,1008.21
2023-05-25T11:01:35.926Z,1008.16
2023-05-25T11:02:35.892Z,1008.15
2023-05-25T11:03:35.831Z,1008.19
2023-05-25T11:04:36.098Z,1008.13
2023-05-25T11:05:35.780Z,1008.12
2023-05-25T11:06:35.794Z,1008.12
2023-05-25T11:07:35.753Z,1008.10
2023-05-25T11:08:35.785Z,1008.14
2023-05-25T11:09:35.765Z,1008.08
2023-05-25T11:10:35.765Z,1008.05
2023-05-25T11:11:35.769Z,1008.10
2023-05-25T11:12:35.753Z,1008.06
2023-05-25T11:13:37.861Z,1008.09
2023-05-25T11:14:35.739Z,1008.08
2023-05-25T11:15:35.678Z,1008.08
2023-05-25T11:16:35.720Z,1008.09
2023-05-25T11:17:36.177Z,1008.11
2023-05-25T11:18:35.673Z,1008.02
2023-05-25T11:19:35.678Z,1008.11
2023-05-25T11:20:35.654Z,1008.14
2023-05-25T11:21:35.638Z,1008.14
2023-05-25T11:22:35.612Z,1008.14
2023-05-25T11:23:35.624Z,1008.14
2023-05-25T11:24:35.705Z,1008.06
2023-05-25T11:25:36.817Z,1008.06
2023-05-25T11:26:35.587Z,1008.02
2023-05-25T11:27:35.596Z,1008.04
2023-05-25T11:28:35.582Z,1008.05
2023-05-25T11:29:35.563Z,1008.01
2023-05-25T11:30:35.555Z,1007.99
2023-05-25T11:31:39.957Z,1008.03
2023-05-25T11:32:35.626Z,1008.00
2023-05-25T11:33:35.640Z,1008.01
2023-05-25T11:34:35.585Z,1008.00
2023-05-25T11:35:35.505Z,1007.93
2023-05-25T11:36:35.596Z,1007.92
2023-05-25T11:37:35.487Z,1007.91
2023-05-25T11:38:35.490Z,1007.87
2023-05-25T11:39:35.508Z,1007.93
2023-05-25T11:40:47.488Z,1007.94
2023-05-25T11:41:35.506Z,1007.91
2023-05-25T11:42:35.452Z,1007.88
2023-05-25T11:43:35.515Z,1007.84
2023-05-25T11:44:35.429Z,1007.85
2023-05-25T11:45:35.490Z,1007.86
2023-05-25T11:46:35.486Z,1007.83
2023-05-25T11:47:35.986Z,1007.88
2023-05-25T11:48:35.378Z,1007.86
2023-05-25T11:49:35.378Z,1007.87
2023-05-25T11:50:35.371Z,1007.92
2023-05-25T11:51:35.386Z,1007.87
2023-05-25T11:52:35.371Z,1007.85
2023-05-25T11:53:35.351Z,1007.86
2023-05-25T11:54:35.339Z,1007.86
2023-05-25T11:55:35.395Z,1007.85
2023-05-25T11:56:36.163Z,1007.84
2023-05-25T11:57:35.337Z,1007.89
2023-05-25T11:58:35.274Z,1007.83
2023-05-25T11:59:35.329Z,1007.85
2023-05-25T12:00:35.271Z,1007.75
2023-05-25T12:01:35.243Z,1007.83
2023-05-25T12:02:35.396Z,1007.79
2023-05-25T12:03:35.374Z,1007.85
2023-05-25T12:04:35.712Z,1007.83
2023-05-25T12:05:35.300Z,1007.85